• Join FlightAware (Why Join?)
  • Login
  • US Flag 
02:16PM EDT


 

Airport Tracker/Info


-or-


 

Live Flight TrackerFlight Track Log ✈ UAL395 ✈ 27-Apr-2013 ✈ KORD - KSAN

Flight Track Log - Related Links

Times and Time Zones

All times are in EDT time to prevent confusion due to time zone crossing. See the UAL395 flight status page for this flight to view local times or setup timezone preferences in your user account.

Time Position Orientation Groundspeed Altitude Reporting Facility
EDT Latitude Longitude Course Direction KTS MPH feet Rate Location/Type
08:03PM 42.0167 -87.9000 261° West 157 181 1,800  Level Chicago TRACON
08:04PM 42.0500 -87.9333 323° Northwest 225 259 2,700 1,680 Climbing Chicago TRACON
08:05PM 41.9236 -88.3821 255° West  Level FlightAware Approximate
08:05PM 42.0833 -88.0000 304° West 272 313 5,000  Level Chicago TRACON
08:06PM 41.9076 -88.5442 261° West  Level FlightAware Approximate
08:06PM 42.0578 -88.1497 257° West 271 312 9,400  Level Chicago Center
08:07PM 41.8885 -88.7064 261° West  Level FlightAware Approximate
08:07PM 42.0247 -88.2708 250° West 283 326 12,600  Level Chicago Center
08:08PM 41.8698 -88.8687 261° West  Level FlightAware Approximate
08:08PM 41.9931 -88.3817 249° West 307 353 13,500  Level Chicago Center
08:09PM 41.9553 -88.5128 249° West 367 422 15,300 1,860 Climbing Chicago Center
08:10PM 41.9186 -88.6481 250° West 385 443 17,300 1,800 Climbing Chicago Center
08:12PM 41.8978 -88.7928 259° West 397 457 19,100 1,800 Climbing Chicago Center
08:13PM 41.8750 -88.9375 258° West 400 460 21,000 1,920 Climbing Chicago Center
08:14PM 41.8486 -89.1153 259° West 409 471 23,100 1,740 Climbing Chicago Center
08:15PM 41.8278 -89.2658 260° West 415 478 24,600 1,260 Climbing Chicago Center
08:16PM 41.8153 -89.4200 264° West 418 481 25,800 1,080 Climbing Chicago Center
08:17PM 41.7992 -89.5869 263° West 427 491 26,900 900 Climbing Chicago Center
08:18PM 41.7853 -89.7506 264° West 439 505 27,700 840 Climbing Chicago Center
08:19PM 41.7700 -89.9158 263° West 447 514 28,700 840 Climbing Chicago Center
08:20PM 41.7556 -90.0850 264° West 456 525 29,500 1,020 Climbing Chicago Center
08:21PM 41.7386 -90.2553 262° West 463 533 30,800 1,260 Climbing Chicago Center
08:22PM 41.7211 -90.4286 262° West 468 539 32,100 1,080 Climbing Chicago Center
08:23PM 41.7050 -90.5925 263° West 451 519 33,100 840 Climbing Chicago Center
08:24PM 41.6886 -90.7614 263° West 449 517 33,900 420 Climbing Chicago Center
08:25PM 41.6711 -90.9239 262° West 445 512 34,000  Climbing Chicago Center
08:26PM 41.6547 -91.0850 262° West 441 507 34,000  Level Chicago Center
08:27PM 41.6383 -91.2481 262° West 443 510 34,000  Level Chicago Center
08:28PM 41.6167 -91.4456 262° West 449 517 34,000  Level Chicago Center
08:29PM 41.5994 -91.6083 262° West 447 514 34,000  Level Chicago Center
08:30PM 41.5817 -91.7714 262° West 447 514 34,000  Level Chicago Center
08:31PM 41.5642 -91.9339 262° West 445 512 34,000  Level Chicago Center
08:32PM 41.5453 -92.0956 261° West 445 512 34,000  Level Chicago Center
08:33PM 41.5267 -92.2586 261° West 446 513 34,000  Level Chicago Center
08:34PM 41.5083 -92.4253 262° West 453 521 34,000  Level Chicago Center
08:35PM 41.4872 -92.6047 261° West 456 525 34,000  Level Chicago Center
08:36PM 41.4683 -92.7672 261° West 450 518 34,000  Level Chicago Center
08:37PM 41.4486 -92.9306 261° West 451 519 34,000  Level Chicago Center
08:38PM 41.4283 -93.0922 261° West 448 516 34,000  Level Chicago Center
08:39PM 41.4047 -93.2889 261° West 452 520 34,000  Level Chicago Center
08:40PM 41.3842 -93.4547 261° West 453 521 34,000  Level Minneapolis Center
08:41PM 41.3603 -93.6483 261° West 448 516 34,000  Level Minneapolis Center
08:42PM 41.3397 -93.8136 261° West 455 524 34,000  Level Minneapolis Center
08:43PM 41.3239 -93.9461 261° West 458 527 34,000  Level Minneapolis Center
08:44PM 41.3022 -94.1094 260° West 455 524 34,000  Level Minneapolis Center
08:45PM 41.2736 -94.3197 260° West 453 521 34,000  Level Minneapolis Center
08:46PM 41.2519 -94.4831 260° West 451 519 34,000  Level Minneapolis Center
08:47PM 41.2294 -94.6458 260° West 449 517 34,000  Level Minneapolis Center
08:48PM 41.2083 -94.8069 260° West 446 513 34,000  Level Minneapolis Center
08:49PM 41.1856 -94.9708 260° West 447 514 34,000  Level Minneapolis Center
08:50PM 41.1622 -95.1336 259° West 448 516 34,000  Level Minneapolis Center
08:51PM 41.1386 -95.2969 259° West 449 517 34,000  Level Minneapolis Center
08:53PM 41.1111 -95.4914 259° West 446 513 34,000  Level Minneapolis Center
08:54PM 41.0825 -95.6850 259° West 443 510 34,000  Level Minneapolis Center
08:55PM 41.0578 -95.8467 259° West 443 510 34,000  Level Minneapolis Center
08:56PM 41.0350 -96.0075 259° West 441 507 34,000  Level Minneapolis Center
08:57PM 41.0106 -96.1675 259° West 439 505 34,000  Level Minneapolis Center
08:58PM 40.9875 -96.3269 259° West 438 504 34,000  Level Minneapolis Center
08:59PM 40.9631 -96.4853 258° West 439 505 34,000  Level Minneapolis Center
09:00PM 40.9389 -96.6419 259° West 436 502 34,000  Level Minneapolis Center
09:01PM 40.9092 -96.7992 256° West 438 504 34,000  Level Minneapolis Center
09:02PM 40.8647 -96.9511 249° West 441 507 34,000  Level Minneapolis Center
09:03PM 40.8200 -97.1033 249° West 443 510 34,000  Level Minneapolis Center
09:04PM 40.7772 -97.2556 250° West 443 510 34,000  Level Minneapolis Center
09:05PM 40.7267 -97.4300 249° West 441 507 34,000  Level Minneapolis Center
09:06PM 40.6822 -97.5808 249° West 442 509 34,000  Level Minneapolis Center
09:07PM 40.6386 -97.7325 249° West 441 507 34,000  Level Minneapolis Center
09:08PM 40.5936 -97.8850 249° West 443 510 34,000  Level Minneapolis Center
09:09PM 40.5486 -98.0378 249° West 445 512 34,000  Level Minneapolis Center
09:10PM 40.5033 -98.1889 249° West 444 511 34,000  Level Minneapolis Center
09:11PM 40.4583 -98.3400 249° West 443 510 34,000  Level Minneapolis Center
09:12PM 40.4131 -98.4897 248° West 441 507 34,000  Level Minneapolis Center
09:13PM 40.3681 -98.6408 249° West 441 507 34,000  Level Minneapolis Center
09:14PM 40.3225 -98.7903 248° West 441 507 34,000  Level Minneapolis Center
09:15PM 40.2683 -98.9694 248° West 440 506 34,000  Level Minneapolis Center
09:16PM 40.2589 -98.9972 246° West 437 503 34,000  Level Denver Center
09:17PM 40.2131 -99.1456 248° West 438 504 34,000  Level Denver Center
09:18PM 40.1658 -99.2953 248° West 443 510 34,000  Level Denver Center
09:19PM 40.1108 -99.4753 248° West 445 512 34,000  Level Denver Center
09:20PM 40.0639 -99.6244 248° West 445 512 34,000  Level Denver Center
09:21PM 40.0158 -99.7742 247° West 447 514 34,000  Level Denver Center
09:22PM 39.9683 -99.9250 248° West 446 513 34,000  Level Denver Center
09:23PM 39.9203 -100.0742 247° West 447 514 34,000  Level Denver Center
09:24PM 39.8717 -100.2239 247° West 448 516 34,000  Level Denver Center
09:25PM 39.8233 -100.3769 248° West 448 516 34,000  Level Denver Center
09:26PM 39.7686 -100.5439 247° West 449 517 34,000  Level Denver Center
09:27PM 39.7219 -100.6861 247° West 447 514 34,000  Level Denver Center
09:28PM 39.6758 -100.8281 247° West 445 512 34,000  Level Denver Center
09:29PM 39.6211 -100.9939 247° West 447 514 34,000  Level Denver Center
09:30PM 39.5739 -101.1342 246° West 445 512 34,000  Level Denver Center
09:31PM 39.5269 -101.2794 247° West 453 521 34,000  Level Denver Center
09:32PM 39.4717 -101.4439 247° West 447 514 34,000  Level Denver Center
09:33PM 39.4239 -101.5836 246° West 445 512 34,000  Level Denver Center
09:34PM 39.3681 -101.7481 246° West 446 513 34,000  Level Denver Center
09:35PM 39.3175 -101.8808 244° Southwest 450 518 34,000  Level Denver Center
09:36PM 39.2572 -102.0419 244° Southwest 447 514 34,000  Level Denver Center
09:37PM 39.2056 -102.1794 244° Southwest 447 514 34,000  Level Denver Center
09:38PM 39.1436 -102.3408 244° Southwest 448 516 34,000  Level Denver Center
09:39PM 39.0908 -102.4800 244° Southwest 452 520 34,000  Level Denver Center
09:40PM 39.0400 -102.6169 244° Southwest 448 516 34,000  Level Denver Center
09:41PM 38.9806 -102.7706 244° Southwest 446 513 34,000  Level Denver Center
09:42PM 38.9244 -102.9158 244° Southwest 448 516 34,000  Level Denver Center
09:43PM 38.8678 -103.0617 244° Southwest 452 520 34,000  Level Denver Center
09:44PM 38.7936 -103.2539 244° Southwest 448 516 34,000  Level Denver Center
09:45PM 38.7367 -103.3994 243° Southwest 450 518 34,000  Level Denver Center
09:46PM 38.6836 -103.5353 243° Southwest 452 520 34,000  Level Denver Center
09:47PM 38.6294 -103.6711 243° Southwest 448 516 34,000  Level Denver Center
09:49PM 38.5661 -103.8297 243° Southwest 450 518 34,000  Level Denver Center
09:50PM 38.5131 -103.9647 243° Southwest 447 514 34,000  Level Denver Center
09:51PM 38.4517 -104.1183 243° Southwest 445 512 34,000  Level Denver Center
09:52PM 38.3931 -104.2628 243° Southwest 451 519 34,000  Level Denver Center
09:53PM 38.3306 -104.4164 243° Southwest 452 520 34,000  Level Denver Center
09:54PM 38.2756 -104.5508 243° Southwest 449 517 34,000  Level Denver Center
09:55PM 38.2186 -104.6922 243° Southwest 449 517 34,000  Level Denver Center
09:56PM 38.1569 -104.8419 242° Southwest 449 517 34,000  Level Denver Center
09:57PM 38.1022 -104.9767 243° Southwest 449 517 34,000  Level Denver Center
09:58PM 38.0369 -105.1311 242° Southwest 447 514 34,000  Level Denver Center
09:59PM 37.9819 -105.2642 242° Southwest 446 513 34,000  Level Denver Center
10:00PM 37.9258 -105.3986 242° Southwest 449 517 34,000  Level Denver Center
10:01PM 37.8608 -105.5542 242° Southwest 450 518 34,000  Level Denver Center
10:02PM 37.8053 -105.6872 242° Southwest 448 516 34,000  Level Denver Center
10:03PM 37.7494 -105.8211 242° Southwest 450 518 34,000  Level Denver Center
10:04PM 37.6825 -105.9750 241° Southwest 448 516 34,000  Level Denver Center
10:05PM 37.6258 -106.1061 241° Southwest 446 513 34,000  Level Denver Center
10:06PM 37.5683 -106.2433 242° Southwest 443 510 34,000  Level Denver Center
10:07PM 37.5025 -106.3958 241° Southwest 442 509 34,000  Level Denver Center
10:08PM 37.4561 -106.5042 242° Southwest 441 507 34,000  Level Denver Center
10:09PM 37.3900 -106.6544 241° Southwest 440 506 34,000  Level Denver Center
10:10PM 37.3247 -106.8050 241° Southwest 439 505 34,000  Level Denver Center
10:11PM 37.2686 -106.9342 241° Southwest 440 506 34,000  Level Denver Center
10:12PM 37.2031 -107.0836 241° Southwest 439 505 34,000  Level Denver Center
10:13PM 37.1461 -107.2114 241° Southwest 436 502 34,000  Level Denver Center
10:14PM 37.0978 -107.3444 246° West 438 504 34,000  Level Denver Center
10:15PM 37.0414 -107.4997 246° West 439 505 34,000  Level Denver Center
10:16PM 36.9925 -107.6297 245° Southwest 434 499 34,000  Level Denver Center
10:17PM 36.9442 -107.7658 246° West 444 511 34,000  Level Denver Center
10:18PM 36.8872 -107.9192 245° Southwest 437 503 34,000  Level Denver Center
10:19PM 36.8378 -108.0528 245° Southwest 441 507 34,000  Level Denver Center
10:20PM 36.7878 -108.1875 245° Southwest 446 513 34,000  Level Denver Center
10:21PM 36.7283 -108.3442 245° Southwest 448 516 34,100  Climbing Denver Center
10:22PM 36.6789 -108.4778 245° Southwest 445 512 34,000 -60 Descending Denver Center
10:23PM 36.6203 -108.6325 245° Southwest 443 510 34,000  Level Denver Center
10:24PM 36.5700 -108.7642 245° Southwest 442 509 34,000  Level Denver Center
10:25PM 36.5206 -108.8958 245° Southwest 442 509 34,000  Level Denver Center
10:26PM 36.4619 -109.0478 244° Southwest 439 505 34,000  Level Denver Center
10:27PM 36.4119 -109.1783 245° Southwest 441 507 34,000  Level Denver Center
10:28PM 36.3531 -109.3297 244° Southwest 440 506 34,000  Level Denver Center
10:29PM 36.3033 -109.4597 245° Southwest 439 505 34,000  Level Denver Center
10:30PM 36.2517 -109.5881 244° Southwest 437 503 34,000  Level Denver Center
10:31PM 36.1928 -109.7394 244° Southwest 438 504 34,000  Level Denver Center
10:32PM 36.1422 -109.8692 244° Southwest 439 505 34,000  Level Denver Center
10:33PM 36.0900 -109.9981 243° Southwest 437 503 34,000  Level Denver Center
10:34PM 36.0358 -110.1383 245° Southwest 439 505 34,000  Level Denver Center
10:35PM 35.9817 -110.2736 244° Southwest 440 506 34,000  Level Denver Center
10:36PM 35.9283 -110.4075 244° Southwest 437 503 34,000  Level Denver Center
10:37PM 35.8731 -110.5419 243° Southwest 438 504 34,000  Level Denver Center
10:38PM 35.8303 -110.6431 242° Southwest 437 503 34,000  Level Albuquerque Center
10:39PM 35.7694 -110.7933 244° Southwest 439 505 34,000  Level Albuquerque Center
10:40PM 35.7175 -110.9208 243° Southwest 437 503 34,000  Level Albuquerque Center
10:41PM 35.6642 -111.0475 243° Southwest 436 502 34,000  Level Albuquerque Center
10:42PM 35.6072 -111.1983 245° Southwest 435 501 34,000  Level Albuquerque Center
10:43PM 35.5542 -111.3242 243° Southwest 435 501 34,000  Level Albuquerque Center
10:44PM 35.5036 -111.4483 243° Southwest 438 504 34,000  Level Albuquerque Center
10:45PM 35.4489 -111.5817 243° Southwest 442 509 34,000  Level Albuquerque Center
10:46PM 35.3939 -111.7117 243° Southwest 434 499 34,000  Level Albuquerque Center
10:47PM 35.3397 -111.8436 243° Southwest 434 499 34,000  Level Albuquerque Center
10:48PM 35.2844 -111.9736 243° Southwest 434 499 34,000  Level Albuquerque Center
10:49PM 35.2303 -112.1050 243° Southwest 433 498 34,000  Level Albuquerque Center
10:50PM 35.1753 -112.2350 243° Southwest 432 497 34,000  Level Albuquerque Center
10:51PM 35.1086 -112.3922 243° Southwest 434 499 34,000  Level Albuquerque Center
10:52PM 35.0536 -112.5219 243° Southwest 431 496 34,000  Level Albuquerque Center
10:53PM 34.9972 -112.6533 242° Southwest 434 499 34,000  Level Albuquerque Center
10:54PM 34.9411 -112.7847 243° Southwest 435 501 34,000  Level Albuquerque Center
10:55PM 34.8844 -112.9161 242° Southwest 436 502 34,000  Level Albuquerque Center
10:56PM 34.8275 -113.0464 242° Southwest 436 502 34,000  Level Albuquerque Center
10:57PM 34.7711 -113.1761 242° Southwest 436 502 34,000  Level Albuquerque Center
10:58PM 34.7144 -113.3069 242° Southwest 437 503 34,000  Level Albuquerque Center
10:59PM 34.6583 -113.4369 242° Southwest 437 503 34,000  Level Albuquerque Center
11:00PM 34.6022 -113.5664 242° Southwest 436 502 34,000  Level Albuquerque Center
11:01PM 34.5428 -113.6967 241° Southwest 435 501 34,000  Level Albuquerque Center
11:02PM 34.4869 -113.8242 242° Southwest 432 497 34,000  Level Albuquerque Center
11:03PM 34.4278 -113.9564 242° Southwest 436 502 34,000  Level Albuquerque Center
11:04PM 34.3703 -114.0853 242° Southwest 435 501 34,000  Level Albuquerque Center
11:05PM 34.3114 -114.2144 241° Southwest 435 501 34,000  Level Albuquerque Center
11:06PM 34.2544 -114.3442 242° Southwest 437 503 34,000  Level Albuquerque Center
11:07PM 34.2206 -114.4206 242° Southwest 438 504 34,000 -120 Level Los Angeles Center
11:08PM 34.1622 -114.5478 241° Southwest 437 503 33,900 -60 Descending Los Angeles Center
11:09PM 34.1053 -114.6742 241° Southwest 434 499 33,900  Level Los Angeles Center
11:10PM 34.0483 -114.8033 242° Southwest 437 503 34,000  Climbing Los Angeles Center
11:11PM 33.9808 -114.9564 242° Southwest 431 496 34,000  Level Los Angeles Center
11:12PM 33.9242 -115.0847 242° Southwest 434 499 34,000  Level Los Angeles Center
11:13PM 33.8678 -115.2125 242° Southwest 433 498 34,000 -840 Level Los Angeles Center
11:14PM 33.8108 -115.3403 242° Southwest 435 501 32,400 -1,860 Descending Los Angeles Center
11:15PM 33.7539 -115.4675 242° Southwest 434 499 30,200 -2,160 Descending Los Angeles Center
11:16PM 33.6967 -115.5925 241° Southwest 430 495 28,100 -2,160 Descending Los Angeles Center
11:17PM 33.6383 -115.7197 241° Southwest 434 499 25,900 -2,040 Descending Los Angeles Center
11:18PM 33.5767 -115.8392 238° Southwest 425 489 24,000 -1,620 Descending Los Angeles Center
11:19PM 33.4939 -115.9375 225° Southwest 419 482 22,700 -1,860 Descending Los Angeles Center
11:20PM 33.3889 -116.0458 221° Southwest 416 479 20,300 -2,220 Descending Los Angeles Center
11:21PM 33.3044 -116.1342 221° Southwest 409 471 18,200 -2,100 Descending Los Angeles Center
11:22PM 33.2217 -116.2197 221° Southwest 399 459 16,100 -1,980 Descending Los Angeles Center
11:23PM 33.1417 -116.3025 221° Southwest 387 445 14,200 -1,380 Descending Los Angeles Center
11:24PM 33.0664 -116.3817 221° Southwest 371 427 13,300 -1,020 Descending Los Angeles Center
11:25PM 32.9922 -116.4519 218° Southwest 355 409 12,200 -1,380 Descending Los Angeles Center
11:26PM 32.9081 -116.4997 205° Southwest 338 389 10,600 -1,320 Descending Los Angeles Center
11:27PM 32.8272 -116.5669 215° Southwest 323 372 9,600 -1,140 Descending Los Angeles Center
11:28PM 32.7875 -116.6503 240° Southwest 298 343 8,300 -1,320 Descending Los Angeles Center
11:29PM 32.7472 -116.7336 240° Southwest 294 338 7,000 -1,140 Descending Los Angeles Center
11:30PM 32.7094 -116.8139 241° Southwest 285 328 6,000 -840 Descending Los Angeles Center
11:31PM 32.6822 -116.8986 249° West 279 321 5,300 -780 Descending Los Angeles Center
11:32PM 32.6667 -116.9333 242° Southwest 239 275 4,900 -1,200 Descending Southern California TRACON
11:33PM 32.6833 -117.0000 287° West 178 205 3,600 -1,320 Descending Southern California TRACON
11:34PM 32.7000 -117.0500 292° West 169 194 2,300 -1,320 Descending Southern California TRACON